»·PEaware :: UPS4444 KSEA-KLAX

UPS4444 :: KSEA-KLAX

FLIGHT INFORMATION

Flight Status: Arrived
Operator:
United Parcel Service
More flights by this operator :: More flights under this callsign
Pilot: Trevel L P. (20826)
Aircraft: Boeing 747-8
(B748)
More flights by this aircraft type
Origin: KSEA Seattle-Tacoma Intl
United States
Destination: KLAX Los Angeles Intl
United States
More flights between these airports :: More routes between these airports
Route: SUMMA2 SUMMA JINMO Q7 JAGWA BURGL IRNMN2
File this flight plan on PilotEdge
Remarks: RMK / SIMBRIEF
Altitude:
(Current/Filed)
35,000ft
Speed:
(Current/Filed)
471kts
Departed: 04-Feb-21 06:14 PM
Arrived: 04-Feb-21 08:13 PM
Distance/Time
Traveled:
830nm/1:59
Distance/Time
To Go:
Arrived

Flight Plot

Page will automatically refresh every two minutes.

Flight plan parsing failed; only flown route is shown


Map Options




Map Legend


Flown Route
Filed Route
Departure Airport
Arrival Airport
Navaid (VOR, NDB)
Fix

Horizontal Profiles

Position Reports

Time Latitude Longitude Heading Altitude Ground
Speed
04-Feb-21 17:30 47.451665 -122.303412 89 446ft 0kts
04-Feb-21 17:31 47.451665 -122.303412 89 446ft 0kts
04-Feb-21 17:32 47.451665 -122.303412 89 446ft 0kts
04-Feb-21 17:33 47.451665 -122.303412 89 446ft 0kts
04-Feb-21 17:34 47.451665 -122.303412 89 446ft 0kts
04-Feb-21 17:35 47.451665 -122.303412 89 446ft 0kts
04-Feb-21 17:36 47.451665 -122.303412 89 446ft 0kts
04-Feb-21 17:37 47.451665 -122.303412 89 446ft 0kts
04-Feb-21 17:38 47.451665 -122.303412 89 446ft 0kts
04-Feb-21 17:39 47.451665 -122.303412 89 446ft 0kts
04-Feb-21 17:40 47.451665 -122.303412 89 446ft 0kts
04-Feb-21 17:41 47.451665 -122.303412 89 446ft 0kts
04-Feb-21 17:42 47.451665 -122.303412 89 446ft 0kts
04-Feb-21 17:43 47.451665 -122.303412 89 446ft 0kts
04-Feb-21 17:44 47.451665 -122.303412 89 446ft 0kts
04-Feb-21 17:45 47.451665 -122.303412 89 446ft 0kts
04-Feb-21 17:46 47.451665 -122.303412 89 446ft 0kts
04-Feb-21 17:47 47.451665 -122.303412 89 446ft 0kts
04-Feb-21 17:48 47.451665 -122.303412 89 446ft 0kts
04-Feb-21 17:49 47.451665 -122.303412 89 446ft 0kts
04-Feb-21 17:50 47.451665 -122.303412 89 446ft 0kts
04-Feb-21 17:51 47.451665 -122.303412 89 446ft 0kts
04-Feb-21 17:52 47.451665 -122.303412 89 446ft 0kts
04-Feb-21 17:53 47.451665 -122.303412 89 446ft 0kts
04-Feb-21 17:54 47.451665 -122.303412 89 446ft 0kts
04-Feb-21 17:55 47.451665 -122.303412 89 446ft 0kts
04-Feb-21 17:56 47.451665 -122.303412 89 446ft 0kts
04-Feb-21 17:57 47.451665 -122.303412 89 446ft 0kts
04-Feb-21 17:58 47.451665 -122.303412 89 446ft 0kts
04-Feb-21 17:59 47.451665 -122.303412 89 446ft 0kts
04-Feb-21 18:00 47.451665 -122.303412 89 446ft 0kts
04-Feb-21 18:02 47.451665 -122.303412 89 446ft 0kts
04-Feb-21 18:03 47.451665 -122.303412 89 446ft 0kts
04-Feb-21 18:04 47.451665 -122.303412 89 446ft 0kts
04-Feb-21 18:05 47.451622 -122.304071 58 446ft 2kts
04-Feb-21 18:06 47.451387 -122.304306 8 446ft 0kts
04-Feb-21 18:07 47.451387 -122.304306 8 446ft 0kts
04-Feb-21 18:08 47.451387 -122.304306 8 446ft 0kts
04-Feb-21 18:09 47.451387 -122.304306 8 446ft 0kts
04-Feb-21 18:10 47.451387 -122.304306 8 446ft 0kts
04-Feb-21 18:11 47.455849 -122.305091 358 446ft 34kts
04-Feb-21 18:12 47.460783 -122.306231 2 446ft 25kts
04-Feb-21 18:13 47.463566 -122.306730 279 446ft 12kts
04-Feb-21 18:14 47.459741 -122.307795 180 446ft 56kts
04-Feb-21 18:15 47.422856 -122.307907 181 1726ft 141kts
04-Feb-21 18:15 47.388231 -122.308163 181 1912ft 166kts
04-Feb-21 18:17 47.327628 -122.308831 181 2994ft 224kts
04-Feb-21 18:18 47.257802 -122.309591 183 5360ft 264kts
04-Feb-21 18:18 47.197597 -122.278441 160 7846ft 291kts
04-Feb-21 18:20 47.103912 -122.231524 166 10871ft 332kts
04-Feb-21 18:20 47.021539 -122.190659 165 11756ft 409kts
04-Feb-21 18:22 46.889927 -122.124225 165 15019ft 448kts
04-Feb-21 18:22 46.788638 -122.073321 165 17214ft 472kts
04-Feb-21 18:23 46.660628 -122.010323 170 19666ft 496kts
04-Feb-21 18:24 46.528560 -122.036493 209 22008ft 480kts
04-Feb-21 18:25 46.402530 -122.107364 205 23376ft 492kts
04-Feb-21 18:26 46.259524 -122.101396 175 24747ft 533kts
04-Feb-21 18:27 46.111721 -122.063613 175 26919ft 545kts
04-Feb-21 18:28 45.960931 -122.027335 175 28745ft 555kts
04-Feb-21 18:29 45.807500 -121.990918 175 30346ft 560kts
04-Feb-21 18:30 45.654353 -121.954885 175 32066ft 556kts
04-Feb-21 18:31 45.501943 -121.919220 175 33414ft 555kts
04-Feb-21 18:32 45.349732 -121.883821 175 34625ft 553kts
04-Feb-21 18:33 45.197403 -121.848571 175 35455ft 553kts
04-Feb-21 18:34 45.045487 -121.813589 175 35449ft 553kts
04-Feb-21 18:35 44.893547 -121.778802 174 35440ft 554kts
04-Feb-21 18:36 44.741186 -121.744107 174 35429ft 554kts
04-Feb-21 18:37 44.589216 -121.709566 174 35405ft 553kts
04-Feb-21 18:38 44.436618 -121.675244 174 35398ft 553kts
04-Feb-21 18:39 44.285144 -121.641025 174 35426ft 553kts
04-Feb-21 18:40 44.133177 -121.605904 173 35404ft 552kts
04-Feb-21 18:41 43.981518 -121.571033 173 35419ft 553kts
04-Feb-21 18:42 43.829582 -121.536022 173 35421ft 552kts
04-Feb-21 18:43 43.678023 -121.501437 173 35427ft 552kts
04-Feb-21 18:44 43.526414 -121.467005 173 35427ft 552kts
04-Feb-21 18:45 43.374840 -121.432782 173 35413ft 551kts
04-Feb-21 18:46 43.223305 -121.398741 173 35414ft 551kts
04-Feb-21 18:47 43.071874 -121.364897 173 35415ft 550kts
04-Feb-21 18:48 42.920721 -121.331295 173 35423ft 549kts
04-Feb-21 18:49 42.769787 -121.297853 172 35424ft 549kts
04-Feb-21 18:50 42.619186 -121.264678 172 35431ft 548kts
04-Feb-21 18:51 42.468746 -121.231740 172 35432ft 547kts
04-Feb-21 18:52 42.318088 -121.198862 172 35431ft 547kts
04-Feb-21 18:53 42.168178 -121.166337 172 35438ft 547kts
04-Feb-21 18:54 42.017537 -121.133807 172 35439ft 547kts
04-Feb-21 18:55 41.867726 -121.101590 171 35436ft 543kts
04-Feb-21 18:56 41.718192 -121.069603 171 35434ft 545kts
04-Feb-21 18:57 41.568082 -121.037626 171 35440ft 545kts
04-Feb-21 18:58 41.418515 -121.005927 171 35438ft 545kts
04-Feb-21 18:59 41.268431 -120.974186 171 35435ft 545kts
04-Feb-21 19:00 41.166018 -120.952689 171 35436ft 544kts
04-Feb-21 19:01 41.034673 -120.925266 171 35432ft 544kts
04-Feb-21 19:02 40.886729 -120.908203 178 35432ft 522kts
04-Feb-21 19:03 40.742691 -120.897554 177 35436ft 519kts
04-Feb-21 19:04 40.598345 -120.886154 177 35438ft 519kts
04-Feb-21 19:05 40.454077 -120.874701 177 35436ft 519kts
04-Feb-21 19:06 40.310139 -120.863324 177 35434ft 518kts
04-Feb-21 19:07 40.166199 -120.852008 177 35426ft 518kts
04-Feb-21 19:08 40.022006 -120.840717 176 35401ft 519kts
04-Feb-21 19:09 39.878032 -120.829520 176 35372ft 516kts
04-Feb-21 19:10 39.734572 -120.818362 176 35344ft 517kts
04-Feb-21 19:11 39.591270 -120.807269 176 35321ft 514kts
04-Feb-21 19:12 39.449673 -120.796348 177 35306ft 505kts
04-Feb-21 19:13 39.309639 -120.785658 177 35306ft 506kts
04-Feb-21 19:14 39.169274 -120.774969 177 35300ft 505kts
04-Feb-21 19:15 39.028776 -120.764248 177 35292ft 504kts
04-Feb-21 19:16 38.888911 -120.753671 177 35303ft 504kts
04-Feb-21 19:17 38.748564 -120.743085 176 35308ft 504kts
04-Feb-21 19:18 38.608867 -120.732593 176 35310ft 503kts
04-Feb-21 19:19 38.468921 -120.722113 176 35315ft 504kts
04-Feb-21 19:20 38.328857 -120.711649 176 35317ft 504kts
04-Feb-21 19:21 38.188646 -120.701238 176 35324ft 504kts
04-Feb-21 19:22 38.048311 -120.690860 176 35315ft 505kts
04-Feb-21 19:23 37.908593 -120.680577 176 35316ft 502kts
04-Feb-21 19:24 37.769018 -120.670319 176 35317ft 502kts
04-Feb-21 19:25 37.629603 -120.660103 175 35317ft 501kts
04-Feb-21 19:26 37.490365 -120.649940 175 35324ft 500kts
04-Feb-21 19:27 37.351428 -120.639795 174 35325ft 498kts
04-Feb-21 19:28 37.216594 -120.602665 162 35323ft 494kts
04-Feb-21 19:29 37.084205 -120.558731 163 35327ft 493kts
04-Feb-21 19:30 36.951501 -120.515665 163 35321ft 492kts
04-Feb-21 19:31 36.819115 -120.472910 163 35320ft 491kts
04-Feb-21 19:32 36.686986 -120.430487 163 35324ft 489kts
04-Feb-21 19:33 36.554864 -120.388224 163 35321ft 489kts
04-Feb-21 19:34 36.423165 -120.346247 163 35314ft 488kts
04-Feb-21 19:35 36.291892 -120.304589 162 35312ft 488kts
04-Feb-21 19:36 36.160346 -120.262958 162 35312ft 487kts
04-Feb-21 19:37 36.028607 -120.221385 162 35305ft 488kts
04-Feb-21 19:38 35.897451 -120.180053 162 35305ft 487kts
04-Feb-21 19:39 35.766159 -120.138980 163 35301ft 487kts
04-Feb-21 19:40 35.638043 -120.087244 148 35282ft 481kts
04-Feb-21 19:41 35.524969 -120.001450 144 35278ft 476kts
04-Feb-21 19:42 35.411629 -119.916077 145 35274ft 479kts
04-Feb-21 19:43 35.297778 -119.830868 144 35274ft 478kts
04-Feb-21 19:44 35.191939 -119.734132 139 35268ft 475kts
04-Feb-21 19:45 35.087141 -119.635676 139 35268ft 475kts
04-Feb-21 19:46 34.982908 -119.538998 139 34007ft 461kts
04-Feb-21 19:48 34.882088 -119.446359 138 32193ft 448kts
04-Feb-21 19:49 34.783258 -119.358192 137 30013ft 430kts
04-Feb-21 19:50 34.689298 -119.275377 138 28185ft 399kts
04-Feb-21 19:51 34.600503 -119.198359 139 25961ft 386kts
04-Feb-21 19:52 34.514495 -119.123072 139 23705ft 376kts
04-Feb-21 19:53 34.430671 -119.049041 140 21498ft 368kts
04-Feb-21 19:54 34.348106 -118.977660 141 19336ft 360kts
04-Feb-21 19:55 34.268907 -118.906031 141 17300ft 350kts
04-Feb-21 19:56 34.192392 -118.835902 141 15327ft 340kts
04-Feb-21 19:57 34.121011 -118.763259 136 13363ft 330kts
04-Feb-21 19:58 34.055514 -118.691749 137 11932ft 307kts
04-Feb-21 19:59 34.023025 -118.604684 95 10363ft 283kts
04-Feb-21 20:00 34.015745 -118.512420 94 8793ft 270kts
04-Feb-21 20:01 34.018646 -118.425278 81 7421ft 254kts
04-Feb-21 20:02 34.027593 -118.339659 81 6123ft 260kts
04-Feb-21 20:03 34.036371 -118.259852 81 5473ft 235kts
04-Feb-21 20:03 34.043940 -118.194291 80 4068ft 234kts
04-Feb-21 20:05 34.054153 -118.105605 84 3010ft 225kts
04-Feb-21 20:06 34.010455 -118.066292 178 3020ft 220kts
04-Feb-21 20:06 33.978540 -118.096021 258 3089ft 197kts
04-Feb-21 20:07 33.975835 -118.162625 267 3014ft 196kts
04-Feb-21 20:08 33.970053 -118.226711 263 2928ft 171kts
04-Feb-21 20:09 33.964201 -118.283836 263 2041ft 169kts
04-Feb-21 20:10 33.958548 -118.339059 262 1192ft 160kts
04-Feb-21 20:11 33.953127 -118.391045 261 330ft 151kts
04-Feb-21 20:12 33.949699 -118.424719 248 141ft 29kts
04-Feb-21 20:13 33.948555 -118.426651 220 141ft 0kts
04-Feb-21 20:14 33.946377 -118.427564 168 141ft 5kts
04-Feb-21 20:15 33.941076 -118.426912 176 141ft 20kts
04-Feb-21 20:16 33.937478 -118.426381 170 141ft 0kts
04-Feb-21 20:17 33.937204 -118.421841 162 141ft 6kts
04-Feb-21 20:18 33.937159 -118.421827 168 141ft 0kts
04-Feb-21 20:19 33.935962 -118.419032 169 141ft 18kts
04-Feb-21 20:20 33.934805 -118.418860 172 141ft 0kts
04-Feb-21 20:21 33.932813 -118.415683 83 141ft 23kts
04-Feb-21 20:22 33.933487 -118.408630 85 141ft 19kts
04-Feb-21 20:23 33.932916 -118.405240 170 141ft 0kts
04-Feb-21 20:24 33.932916 -118.405240 170 141ft 0kts
04-Feb-21 20:25 33.932916 -118.405240 170 141ft 0kts
04-Feb-21 20:26 33.932916 -118.405240 170 141ft 0kts

Navigation Log

Ident Type
Flight plan parsing failed, navigation log unavailable